Latest Weather Observations for Sheffield

IDT60801

Issued at 9:31 pm EST Friday 31 July 2015 (issued every 30 minutes, with the page automatically refreshed every 10 minutes)

About weather observations | Map of weather stations | Latest weather observations for TAS | Other Formats
Station Details ID: 091291 Name: SHEFFIELD SCHOOL FARM Lat: -41.39 Lon: 146.32 Height: 294.2 m
Data from the previous 72 hours. | See also: Recent months at Sheffield
Date/Time
EST
Temp
°C
App
Temp
°C
Dew
Point
Rel
Hum
%
Delta-T
°C
Wind Press
QNH
hPa
Press
MSL
hPa
Rain
since 9 am
mm
Dir
 
Spd
km/h
Gust
km/h
Spd
kts
Gust
kts
31/09:30pm 6.1 0.8 5.2 94 0.4 NW 22 28 12 15 1009.7 1010.3 0.2
31/09:00pm 5.8 2.2 5.1 95 0.3 NNW 13 17 7 9 1009.8 1010.4 0.2
31/08:30pm 5.8 2.2 4.8 93 0.4 NW 13 19 7 10 1010.5 1011.1 0.2
31/08:00pm 5.8 1.7 4.1 89 0.7 NW 15 19 8 10 1010.8 1011.4 0.2
31/07:30pm 5.6 0.9 3.4 86 0.9 NW 17 20 9 11 1011.0 1011.6 0.2
31/07:00pm 5.7 1.0 3.2 84 1.1 NW 17 24 9 13 1011.2 1011.8 0.2
31/06:30pm 6.1 1.1 3.4 83 1.2 NW 19 26 10 14 1011.3 1011.9 0.2
31/06:00pm 5.8 1.6 3.6 86 0.9 NW 15 20 8 11 1011.7 1012.3 0.2
31/05:30pm 6.1 1.1 3.8 85 1.0 NW 19 24 10 13 1011.6 1012.2 0.2
31/05:00pm 6.2 1.1 2.8 79 1.4 NW 19 26 10 14 1011.5 1012.1 0.2
31/04:30pm 7.1 2.0 3.3 77 1.6 NNW 19 26 10 14 1011.4 1012.0 0.2
31/04:00pm 7.5 3.3 3.7 77 1.7 NW 15 22 8 12 1012.0 1012.5 0.2
31/03:30pm 7.2 2.0 3.6 78 1.6 NW 20 28 11 15 1012.2 1012.7 0.2
31/03:00pm 8.1 3.1 4.5 78 1.6 NW 20 32 11 17 1012.6 1013.2 0.2
31/02:30pm 7.3 2.3 3.7 78 1.6 NNW 19 24 10 13 1012.8 1013.4 0.2
31/02:00pm 7.9 2.2 2.8 70 2.2 NW 22 37 12 20 1013.0 1013.6 0.2
31/01:30pm 7.0 2.3 2.9 75 1.7 NW 17 20 9 11 1013.5 1014.1 0.2
31/01:00pm 7.1 2.3 2.4 72 2.0 WNW 17 20 9 11 1013.8 1014.4 0.2
31/12:30pm 7.8 3.4 2.7 70 2.2 NW 15 24 8 13 1014.2 1014.8 0.2
31/12:00pm 6.5 1.0 2.0 73 1.9 WNW 20 26 11 14 1014.8 1015.4 0.0
31/11:30am 6.7 1.6 1.0 67 2.3 WNW 17 24 9 13 1015.2 1015.9 0.0
31/11:00am 6.9 1.4 1.6 69 2.2 NW 20 32 11 17 1015.4 1016.1 0.0
31/10:30am 7.1 1.8 1.6 68 2.3 NW 19 26 10 14 1015.4 1016.1 0.0
31/10:00am 6.1 1.5 1.4 72 1.9 NW 15 19 8 10 1015.2 1015.9 0.0
31/09:30am 5.6 2.5 1.3 74 1.7 NNW 7 13 4 7 1015.0 1015.6 0.0
31/09:00am 4.8 1.8 0.6 74 1.6 N 6 7 3 4 1014.6 1015.2 11.4
31/08:30am 2.9 -0.3 -0.4 79 1.2 NW 6 7 3 4 1014.6 1015.2 11.4
31/08:00am 2.3 -0.9 -0.6 81 1.1 NNW 6 7 3 4 1014.7 1015.3 11.4
31/07:30am 1.6 -2.3 -1.6 79 1.1 NNW 9 11 5 6 1014.4 1015.0 11.4
31/07:00am 2.0 -1.5 -1.2 79 1.2 NW 7 11 4 6 1013.9 1014.5 11.4
31/06:30am 2.7 -1.6 -1.3 75 1.5 NW 11 17 6 9 1013.8 1014.4 11.4
31/06:00am 3.1 -2.0 -1.6 71 1.7 NW 15 26 8 14 1013.3 1013.9 11.4
31/05:30am 3.1 -1.2 -1.4 72 1.6 WNW 11 19 6 10 1013.1 1013.7 11.4
31/05:00am 4.1 -2.6 -1.1 69 1.9 W 24 39 13 21 1012.8 1013.4 11.4
31/04:30am 4.2 -3.3 -1.4 67 2.1 WSW 28 39 15 21 1012.4 1013.0 11.4
31/04:17am 4.5 -3.7 -1.3 66 2.2 WSW 32 52 17 28 1012.3 1012.8 11.4
31/04:00am 3.9 -3.2 -1.3 69 1.9 WSW 26 44 14 24 1012.0 1012.5 11.4
31/03:30am 4.1 -2.7 -1.7 66 2.1 WSW 24 35 13 19 1012.0 1012.5 11.4
31/03:00am 4.2 -3.4 -1.8 65 2.2 W 28 41 15 22 1011.6 1012.2 11.4
31/02:30am 3.9 -1.8 -0.9 71 1.8 W 19 30 10 16 1011.6 1012.2 11.4
31/02:00am 3.9 -2.2 0.1 76 1.5 WSW 22 37 12 20 1011.3 1011.9 11.4
31/01:30am 4.7 -1.6 -1.1 66 2.2 W 22 33 12 18 1010.5 1011.1 11.4
31/01:00am 4.8 -2.6 -1.0 66 2.2 W 28 39 15 21 1010.0 1010.6 11.4
31/12:30am 4.9 -2.0 0.1 71 1.9 W 26 35 14 19 1009.5 1010.1 11.4
31/12:00am 4.5 -0.3 -0.1 72 1.8 WNW 15 20 8 11 1009.1 1009.6 11.4
 
Date/Time
EST
Temp
°C
App
Temp
°C
Dew
Point
Rel
Hum
%
Delta-T
°C
Wind Press
QNH
hPa
Press
MSL
hPa
Rain
since 9 am
mm
Dir
 
Spd
km/h
Gust
km/h
Spd
kts
Gust
kts
30/11:30pm 4.6 0.4 -0.6 69 2.0 W 11 17 6 9 1008.6 1009.1 11.4
30/11:00pm 4.8 0.0 0.2 72 1.8 W 15 22 8 12 1007.8 1008.4 11.4
30/10:30pm 5.1 0.7 0.1 70 1.9 W 13 22 7 12 1007.4 1008.0 11.4
30/10:00pm 5.2 1.3 1.3 76 1.6 W 11 17 6 9 1006.3 1006.8 11.4
30/09:30pm 5.8 0.3 1.9 76 1.6 W 20 32 11 17 1005.5 1006.0 11.4
30/09:00pm 6.1 0.8 3.1 81 1.3 WNW 20 32 11 17 1005.0 1005.5 11.4
30/08:30pm 6.4 2.1 3.0 79 1.4 W 15 22 8 12 1003.6 1004.1 11.4
30/08:00pm 6.4 2.7 4.4 87 0.9 W 13 19 7 10 1003.4 1003.9 11.4
30/07:30pm 7.2 0.2 4.2 81 1.3 WNW 30 41 16 22 1003.2 1003.7 11.4
30/07:00pm 7.5 1.8 6.8 95 0.3 NW 26 39 14 21 1003.3 1003.8 10.0
30/06:30pm 7.3 1.9 6.4 94 0.4 NW 24 33 13 18 1002.9 1003.4 9.0
30/06:00pm 7.3 0.7 6.2 93 0.5 NW 30 43 16 23 1003.3 1003.8 8.6
30/05:30pm 7.3 0.7 6.1 92 0.6 NW 30 48 16 26 1003.8 1004.4 7.0
30/05:00pm 7.1 0.8 5.9 92 0.6 NW 28 43 15 23 1004.2 1004.8 6.2
30/04:30pm 6.8 0.4 5.4 91 0.6 NW 28 43 15 23 1005.1 1005.6 5.4
30/04:00pm 6.9 -0.4 5.4 90 0.7 NW 33 46 18 25 1005.7 1006.2 4.0
30/03:30pm 6.8 -0.3 5.4 91 0.6 NW 32 50 17 27 1006.3 1006.8 2.8
30/03:28pm 6.9 -0.2 5.7 92 0.5 NW 32 50 17 27 1006.4 1006.9 2.6
30/03:00pm 7.2 1.3 5.8 91 0.6 NW 26 41 14 22 1006.8 1007.4 1.8
30/02:30pm 7.2 0.5 5.7 90 0.7 NW 30 43 16 23 1007.3 1007.9 1.0
30/02:03pm 7.6 0.9 5.7 88 0.9 NW 30 50 16 27 1007.7 1008.3 0.8
30/02:00pm 7.7 0.6 5.7 87 0.9 NW 32 50 17 27 1007.8 1008.4 0.8
30/01:30pm 7.9 0.6 5.4 84 1.1 NNW 33 48 18 26 1008.7 1009.2 0.2
30/01:07pm 8.1 0.7 4.9 80 1.4 NW 33 52 18 28 1009.4 1009.9 0.2
30/01:00pm 8.2 -0.3 5.0 80 1.4 NNW 39 52 21 28 1009.6 1010.2 0.2
30/12:30pm 8.5 -0.1 4.9 78 1.6 NW 39 54 21 29 1010.1 1010.7 0.2
30/12:00pm 8.5 0.8 5.4 81 1.4 NNW 35 57 19 31 1010.9 1011.5 0.2
30/11:53am 8.8 1.1 5.4 79 1.6 NNW 35 57 19 31 1011.0 1011.6 0.2
30/11:30am 8.5 1.2 5.3 80 1.5 NW 33 44 18 24 1012.1 1012.6 0.2
30/11:00am 8.4 1.7 5.5 82 1.3 NW 30 48 16 26 1013.1 1013.7 0.2
30/10:30am 8.4 2.5 5.7 83 1.2 NNW 26 35 14 19 1013.5 1014.1 0.2
30/10:00am 8.2 1.5 5.7 84 1.1 NNW 30 39 16 21 1014.4 1015.0 0.2
30/09:30am 8.0 2.8 5.6 85 1.1 NNW 22 35 12 19 1014.9 1015.5 0.2
30/09:00am 7.9 3.4 5.9 87 0.9 NW 19 28 10 15 1015.3 1016.0 0.8
30/08:30am 7.6 3.0 5.7 88 0.9 NW 19 24 10 13 1015.7 1016.3 0.8
30/08:00am 7.5 3.0 6.0 90 0.7 NW 19 28 10 15 1016.1 1016.7 0.8
30/07:30am 7.5 3.6 5.5 87 0.9 NW 15 20 8 11 1016.2 1016.8 0.6
30/07:00am 7.5 2.8 5.3 86 1.0 NW 19 26 10 14 1016.4 1017.0 0.6
30/06:30am 7.5 2.6 5.0 84 1.1 NNW 20 28 11 15 1016.6 1017.2 0.6
30/06:00am 7.5 2.8 5.0 84 1.1 NNW 19 28 10 15 1017.0 1017.6 0.6
30/05:30am 7.5 3.2 5.1 85 1.1 NW 17 22 9 12 1017.6 1018.2 0.6
30/05:00am 7.5 3.5 5.1 85 1.1 NW 15 20 8 11 1017.8 1018.4 0.6
30/04:30am 7.3 4.1 5.3 87 0.9 NW 11 13 6 7 1018.4 1019.1 0.6
30/04:00am 7.5 3.2 5.3 86 1.0 NW 17 24 9 13 1018.7 1019.4 0.6
30/03:30am 7.2 3.7 5.5 89 0.8 WNW 13 17 7 9 1019.2 1019.8 0.6
30/03:00am 7.4 4.3 5.5 88 0.9 NW 11 15 6 8 1019.6 1020.2 0.4
30/02:30am 7.3 4.1 5.3 87 0.9 NW 11 13 6 7 1020.1 1020.7 0.4
30/02:00am 7.1 3.9 5.3 88 0.8 NNW 11 13 6 7 1020.3 1020.9 0.4
30/01:30am 7.1 3.5 5.1 87 0.9 NNW 13 15 7 8 1020.8 1021.5 0.4
30/01:00am 6.9 3.7 4.9 87 0.9 NNW 11 13 6 7 1021.3 1022.0 0.4
30/12:30am 6.7 3.8 4.9 88 0.8 NNW 9 11 5 6 1021.6 1022.3 0.4
30/12:00am 6.7 3.5 4.9 88 0.8 NNW 11 13 6 7 1022.1 1022.8 0.4
 
Date/Time
EST
Temp
°C
App
Temp
°C
Dew
Point
Rel
Hum
%
Delta-T
°C
Wind Press
QNH
hPa
Press
MSL
hPa
Rain
since 9 am
mm
Dir
 
Spd
km/h
Gust
km/h
Spd
kts
Gust
kts
29/11:30pm 7.1 3.9 5.3 88 0.8 NNW 11 15 6 8 1022.4 1023.1 0.4
29/11:00pm 7.6 3.6 5.1 84 1.1 NW 15 20 8 11 1022.7 1023.3 0.4
29/10:30pm 7.6 4.1 5.6 87 0.9 NW 13 20 7 11 1023.1 1023.7 0.4
29/10:00pm 7.7 3.9 6.0 89 0.8 NW 15 24 8 13 1023.3 1023.9 0.4
29/09:30pm 7.4 3.7 6.5 94 0.4 NW 15 17 8 9 1023.5 1024.1 0.4
29/09:00pm 7.1 4.9 6.4 95 0.3 NNW 7 9 4 5 1023.6 1024.2 0.4
29/08:30pm 7.3 4.7 6.2 93 0.5 NNW 9 13 5 7 1023.7 1024.4 0.2
29/08:00pm 7.7 4.0 6.2 90 0.7 NW 15 20 8 11 1023.7 1024.4 0.2
29/07:30pm 7.8 4.0 5.9 88 0.9 NW 15 22 8 12 1023.8 1024.5 0.2
29/07:00pm 7.9 3.1 5.7 86 1.0 NW 20 30 11 16 1023.6 1024.2 0.0
29/06:30pm 7.5 3.2 6.9 96 0.3 NW 19 24 10 13 1023.4 1024.0 0.0
29/06:00pm 7.9 5.5 7.1 95 0.4 NNW 9 15 5 8 1023.5 1024.1 0.0
29/05:30pm 8.0 4.5 7.2 95 0.4 NNW 15 22 8 12 1023.6 1024.2 0.0
29/05:00pm 7.9 4.7 7.0 94 0.4 NNW 13 19 7 10 1023.6 1024.2 0.0
29/04:30pm 8.2 4.7 7.1 93 0.5 NNW 15 20 8 11 1023.8 1024.5 0.0
29/04:00pm 8.6 5.5 7.2 91 0.7 NNW 13 19 7 10 1024.4 1025.1 0.0
29/03:30pm 9.3 5.8 7.1 86 1.1 NNW 15 20 8 11 1024.4 1025.1 0.0
29/03:00pm 9.3 6.0 6.6 83 1.3 NNW 13 19 7 10 1024.7 1025.4 0.0
29/02:30pm 9.2 4.5 6.1 81 1.4 NW 20 30 11 16 1024.8 1025.5 0.0
29/02:00pm 9.7 6.6 7.1 84 1.2 NNW 13 20 7 11 1025.0 1025.7 0.0
29/01:30pm 9.1 6.7 7.1 87 1.0 WNW 9 13 5 7 1025.5 1026.2 0.0
29/01:00pm 8.9 5.6 6.5 85 1.1 NW 13 19 7 10 1026.3 1026.9 0.0
29/12:30pm 9.0 5.3 6.3 83 1.3 NNW 15 20 8 11 1026.7 1027.4 0.0
29/12:00pm 8.8 6.5 7.3 90 0.7 NNW 9 13 5 7 1027.3 1028.0 0.0
29/11:30am 8.1 4.0 6.1 87 0.9 NW 17 20 9 11 1027.9 1028.6 0.0
29/11:00am 7.6 3.9 6.1 90 0.7 NW 15 19 8 10 1028.3 1029.0 0.0
29/10:30am 7.3 4.7 6.1 92 0.6 NNW 9 15 5 8 1028.4 1029.1 0.0
29/10:00am 6.3 3.4 4.9 91 0.6 NNW 9 11 5 6 1028.7 1029.4 0.0
29/09:30am 5.7 2.7 4.3 91 0.6 N 9 13 5 7 1028.8 1029.5 0.0
29/09:00am 4.0 1.2 3.3 95 0.3 NNW 7 9 4 5 1029.0 1029.7 0.0
29/08:30am 3.5 0.8 2.9 96 0.2 NW 6 6 3 3 1028.9 1029.6 0.0
29/08:00am 2.5 -0.5 1.9 96 0.2 NW 7 7 4 4 1028.9 1029.6 0.0
29/07:30am 2.5 -0.5 1.8 95 0.3 NNW 7 9 4 5 1028.8 1029.5 0.0
29/07:00am 2.6 -0.8 1.9 95 0.3 NNW 9 13 5 7 1028.8 1029.5 0.0
29/06:30am 2.8 -1.0 1.9 94 0.4 NNW 11 15 6 8 1028.4 1029.1 0.0
29/06:00am 2.9 -0.5 1.6 91 0.5 NNW 9 11 5 6 1028.1 1028.8 0.0
29/05:30am 3.8 0.5 2.3 90 0.6 NW 9 11 5 6 1028.0 1028.7 0.0
29/05:00am 4.7 0.3 2.9 88 0.7 WNW 15 19 8 10 1028.0 1028.7 0.0
29/04:30am 3.5 -0.9 2.8 95 0.3 NW 15 17 8 9 1027.8 1028.5 0.0
29/04:00am 3.0 -0.7 2.3 95 0.3 NNW 11 13 6 7 1027.9 1028.6 0.0
29/03:30am 3.6 0.6 2.3 91 0.5 NW 7 11 4 6 1028.1 1028.8 0.0
29/03:00am 3.7 0.1 2.7 93 0.4 NW 11 13 6 7 1028.2 1028.9 0.0
29/02:30am 3.6 -0.4 2.6 93 0.4 NW 13 17 7 9 1028.0 1028.7 0.0
29/02:00am 4.6 1.0 3.1 90 0.6 NW 11 15 6 8 1028.1 1028.8 0.0
29/01:30am 4.8 -0.4 3.6 92 0.5 NNW 20 24 11 13 1028.2 1028.9 0.0
29/01:00am 4.3 0.3 3.0 91 0.5 NNW 13 17 7 9 1028.3 1029.0 0.0
29/12:30am 4.8 0.2 3.5 91 0.5 WNW 17 19 9 10 1028.3 1029.0 0.0
29/12:00am 5.8 1.3 4.4 91 0.6 NW 17 20 9 11 1028.8 1029.5 0.0
 
Date/Time
EST
Temp
°C
App
Temp
°C
Dew
Point
Rel
Hum
%
Delta-T
°C
Wind Press
QNH
hPa
Press
MSL
hPa
Rain
since 9 am
mm
Dir
 
Spd
km/h
Gust
km/h
Spd
kts
Gust
kts
28/11:30pm 4.8 1.6 3.1 89 0.7 NNW 9 15 5 8 1028.6 1029.3 0.0
28/11:00pm 6.9 2.8 4.6 85 1.0 NW 15 22 8 12 1028.7 1029.4 0.0
28/10:30pm 6.0 2.7 4.3 89 0.7 NW 11 19 6 10 1028.8 1029.5 0.0
28/10:00pm 5.4 2.4 4.1 91 0.6 NNW 9 13 5 7 1028.7 1029.4 0.0

Other Formats:

Comma delimited format used in spreadsheet applications
http://www.bom.gov.au/fwo/IDT60801/IDT60801.94955.axf

JavaScript Object Notation format (JSON) in row-major order
http://www.bom.gov.au/fwo/IDT60801/IDT60801.94955.json